sensor_id;sensor_type;location;lat;lon;timestamp;temperature;humidity
78490;DHT22;67776;52.012;4.736;2023-03-13T00:00:52;9.28;92.06
78490;DHT22;67776;52.012;4.736;2023-03-13T00:03:18;9.25;92.50
78490;DHT22;67776;52.012;4.736;2023-03-13T00:05:43;9.26;92.88
78490;DHT22;67776;52.012;4.736;2023-03-13T00:08:09;9.25;93.12
78490;DHT22;67776;52.012;4.736;2023-03-13T00:10:39;9.25;93.23
78490;DHT22;67776;52.012;4.736;2023-03-13T00:13:05;9.25;93.34
78490;DHT22;67776;52.012;4.736;2023-03-13T00:15:30;9.26;93.39
78490;DHT22;67776;52.012;4.736;2023-03-13T00:17:55;9.26;93.54
78490;DHT22;67776;52.012;4.736;2023-03-13T00:20:21;9.25;93.66
78490;DHT22;67776;52.012;4.736;2023-03-13T00:22:46;9.23;93.73
78490;DHT22;67776;52.012;4.736;2023-03-13T00:25:11;9.26;93.74
78490;DHT22;67776;52.012;4.736;2023-03-13T00:27:37;9.25;93.72
78490;DHT22;67776;52.012;4.736;2023-03-13T00:30:02;9.22;93.76
78490;DHT22;67776;52.012;4.736;2023-03-13T00:32:28;9.33;93.53
78490;DHT22;67776;52.012;4.736;2023-03-13T00:34:53;9.32;93.51
78490;DHT22;67776;52.012;4.736;2023-03-13T00:37:18;9.33;93.65
78490;DHT22;67776;52.012;4.736;2023-03-13T00:39:44;9.33;93.69
78490;DHT22;67776;52.012;4.736;2023-03-13T00:42:09;9.35;93.69
78490;DHT22;67776;52.012;4.736;2023-03-13T00:44:34;9.42;93.58
78490;DHT22;67776;52.012;4.736;2023-03-13T00:47:00;9.43;93.55
78490;DHT22;67776;52.012;4.736;2023-03-13T00:49:25;9.44;93.60
78490;DHT22;67776;52.012;4.736;2023-03-13T00:51:50;9.51;93.56
78490;DHT22;67776;52.012;4.736;2023-03-13T00:54:16;9.49;93.62
78490;DHT22;67776;52.012;4.736;2023-03-13T00:56:41;9.47;93.65
78490;DHT22;67776;52.012;4.736;2023-03-13T00:59:07;9.53;93.72
78490;DHT22;67776;52.012;4.736;2023-03-13T01:01:35;9.59;93.58
78490;DHT22;67776;52.012;4.736;2023-03-13T01:04:04;9.60;93.58
78490;DHT22;67776;52.012;4.736;2023-03-13T01:06:32;9.63;93.64
78490;DHT22;67776;52.012;4.736;2023-03-13T01:08:58;9.64;93.76
78490;DHT22;67776;52.012;4.736;2023-03-13T01:11:28;9.61;93.73
78490;DHT22;67776;52.012;4.736;2023-03-13T01:13:59;9.67;93.88
78490;DHT22;67776;52.012;4.736;2023-03-13T01:16:25;9.73;93.77
78490;DHT22;67776;52.012;4.736;2023-03-13T01:18:53;9.74;93.71
78490;DHT22;67776;52.012;4.736;2023-03-13T01:21:20;9.78;93.67
78490;DHT22;67776;52.012;4.736;2023-03-13T01:23:46;9.84;93.58
78490;DHT22;67776;52.012;4.736;2023-03-13T01:26:12;9.80;93.70
78490;DHT22;67776;52.012;4.736;2023-03-13T01:28:38;9.83;93.63
78490;DHT22;67776;52.012;4.736;2023-03-13T01:33:35;9.90;93.51
78490;DHT22;67776;52.012;4.736;2023-03-13T01:36:01;9.94;93.54
78490;DHT22;67776;52.012;4.736;2023-03-13T01:38:27;9.97;93.31
78490;DHT22;67776;52.012;4.736;2023-03-13T01:40:52;10.06;93.26
78490;DHT22;67776;52.012;4.736;2023-03-13T01:48:33;10.18;93.27
78490;DHT22;67776;52.012;4.736;2023-03-13T01:51:00;10.19;93.57
78490;DHT22;67776;52.012;4.736;2023-03-13T01:53:29;10.19;93.73
78490;DHT22;67776;52.012;4.736;2023-03-13T01:55:56;10.21;93.73
78490;DHT22;67776;52.012;4.736;2023-03-13T01:58:22;10.22;93.74
78490;DHT22;67776;52.012;4.736;2023-03-13T02:00:48;10.25;93.80
78490;DHT22;67776;52.012;4.736;2023-03-13T02:03:16;10.23;93.94
78490;DHT22;67776;52.012;4.736;2023-03-13T02:05:43;10.26;94.12
78490;DHT22;67776;52.012;4.736;2023-03-13T02:08:20;10.32;93.97
78490;DHT22;67776;52.012;4.736;2023-03-13T02:11:00;10.33;93.87
78490;DHT22;67776;52.012;4.736;2023-03-13T02:13:28;10.38;93.91
78490;DHT22;67776;52.012;4.736;2023-03-13T02:15:53;10.40;93.77
78490;DHT22;67776;52.012;4.736;2023-03-13T02:18:19;10.48;93.67
78490;DHT22;67776;52.012;4.736;2023-03-13T02:20:45;10.49;93.47
78490;DHT22;67776;52.012;4.736;2023-03-13T02:23:21;10.50;93.39
78490;DHT22;67776;52.012;4.736;2023-03-13T02:25:51;10.59;93.40
78490;DHT22;67776;52.012;4.736;2023-03-13T02:28:18;10.60;93.27
78490;DHT22;67776;52.012;4.736;2023-03-13T02:30:46;10.60;93.25
78490;DHT22;67776;52.012;4.736;2023-03-13T02:33:13;10.61;93.37
78490;DHT22;67776;52.012;4.736;2023-03-13T02:35:39;10.66;93.35
78490;DHT22;67776;52.012;4.736;2023-03-13T02:38:07;10.66;93.37
78490;DHT22;67776;52.012;4.736;2023-03-13T02:40:36;10.77;92.91
78490;DHT22;67776;52.012;4.736;2023-03-13T02:43:10;10.78;92.99
78490;DHT22;67776;52.012;4.736;2023-03-13T02:45:36;10.80;92.93
78490;DHT22;67776;52.012;4.736;2023-03-13T02:48:02;10.88;92.57
78490;DHT22;67776;52.012;4.736;2023-03-13T02:50:27;10.90;92.66
78490;DHT22;67776;52.012;4.736;2023-03-13T02:52:57;10.91;92.48
78490;DHT22;67776;52.012;4.736;2023-03-13T02:55:28;10.97;92.56
78490;DHT22;67776;52.012;4.736;2023-03-13T02:57:54;11.04;92.36
78490;DHT22;67776;52.012;4.736;2023-03-13T03:00:19;11.05;92.32
78490;DHT22;67776;52.012;4.736;2023-03-13T03:02:50;11.01;92.20
78490;DHT22;67776;52.012;4.736;2023-03-13T03:05:15;11.00;92.31
78490;DHT22;67776;52.012;4.736;2023-03-13T03:07:40;11.12;92.00
78490;DHT22;67776;52.012;4.736;2023-03-13T03:10:06;10.98;92.27
78490;DHT22;67776;52.012;4.736;2023-03-13T03:12:32;11.00;92.43
78490;DHT22;67776;52.012;4.736;2023-03-13T03:14:57;11.03;92.55
78490;DHT22;67776;52.012;4.736;2023-03-13T03:17:22;11.08;92.37
78490;DHT22;67776;52.012;4.736;2023-03-13T03:19:48;11.15;92.05
78490;DHT22;67776;52.012;4.736;2023-03-13T03:22:13;11.21;91.98
78490;DHT22;67776;52.012;4.736;2023-03-13T03:24:38;11.18;91.85
78490;DHT22;67776;52.012;4.736;2023-03-13T03:27:04;11.18;92.23
78490;DHT22;67776;52.012;4.736;2023-03-13T03:29:29;11.23;92.06
78490;DHT22;67776;52.012;4.736;2023-03-13T03:31:54;11.22;92.24
78490;DHT22;67776;52.012;4.736;2023-03-13T03:34:20;11.21;92.14
78490;DHT22;67776;52.012;4.736;2023-03-13T03:36:45;11.23;92.19
78490;DHT22;67776;52.012;4.736;2023-03-13T03:39:11;11.36;91.96
78490;DHT22;67776;52.012;4.736;2023-03-13T03:41:36;11.29;92.27
78490;DHT22;67776;52.012;4.736;2023-03-13T03:44:02;11.36;92.07
78490;DHT22;67776;52.012;4.736;2023-03-13T03:46:27;11.35;92.26
78490;DHT22;67776;52.012;4.736;2023-03-13T03:48:53;11.29;92.43
78490;DHT22;67776;52.012;4.736;2023-03-13T03:51:19;11.31;92.48
78490;DHT22;67776;52.012;4.736;2023-03-13T03:53:44;11.31;92.76
78490;DHT22;67776;52.012;4.736;2023-03-13T03:56:10;11.28;92.64
78490;DHT22;67776;52.012;4.736;2023-03-13T03:58:35;11.26;92.75
78490;DHT22;67776;52.012;4.736;2023-03-13T04:01:00;11.33;92.67
78490;DHT22;67776;52.012;4.736;2023-03-13T04:03:26;11.32;92.80
78490;DHT22;67776;52.012;4.736;2023-03-13T04:05:51;11.38;92.57
78490;DHT22;67776;52.012;4.736;2023-03-13T04:08:17;11.44;92.47
78490;DHT22;67776;52.012;4.736;2023-03-13T04:10:42;11.44;92.50
78490;DHT22;67776;52.012;4.736;2023-03-13T04:13:08;11.33;92.80
78490;DHT22;67776;52.012;4.736;2023-03-13T04:15:33;11.32;93.29
78490;DHT22;67776;52.012;4.736;2023-03-13T04:17:58;11.33;93.32
78490;DHT22;67776;52.012;4.736;2023-03-13T04:20:25;11.36;93.19
78490;DHT22;67776;52.012;4.736;2023-03-13T04:22:50;11.35;93.03
78490;DHT22;67776;52.012;4.736;2023-03-13T04:25:16;11.39;93.02
78490;DHT22;67776;52.012;4.736;2023-03-13T04:27:41;11.44;92.70
78490;DHT22;67776;52.012;4.736;2023-03-13T04:30:07;11.52;92.55
78490;DHT22;67776;52.012;4.736;2023-03-13T04:32:33;11.47;92.64
78490;DHT22;67776;52.012;4.736;2023-03-13T04:34:58;11.52;92.68
78490;DHT22;67776;52.012;4.736;2023-03-13T04:37:24;11.53;92.60
78490;DHT22;67776;52.012;4.736;2023-03-13T04:39:49;11.56;92.29
78490;DHT22;67776;52.012;4.736;2023-03-13T04:42:14;11.47;92.24
78490;DHT22;67776;52.012;4.736;2023-03-13T04:44:40;11.42;92.58
78490;DHT22;67776;52.012;4.736;2023-03-13T04:47:05;11.46;92.58
78490;DHT22;67776;52.012;4.736;2023-03-13T04:49:31;11.57;92.02
78490;DHT22;67776;52.012;4.736;2023-03-13T04:51:56;11.63;91.79
78490;DHT22;67776;52.012;4.736;2023-03-13T04:54:21;11.69;91.40
78490;DHT22;67776;52.012;4.736;2023-03-13T04:56:47;11.57;91.63
78490;DHT22;67776;52.012;4.736;2023-03-13T04:59:13;11.67;91.04
78490;DHT22;67776;52.012;4.736;2023-03-13T05:01:40;11.69;90.61
78490;DHT22;67776;52.012;4.736;2023-03-13T05:04:05;11.78;90.13
78490;DHT22;67776;52.012;4.736;2023-03-13T05:06:31;11.77;89.79
78490;DHT22;67776;52.012;4.736;2023-03-13T05:08:56;11.78;89.56
78490;DHT22;67776;52.012;4.736;2023-03-13T05:11:21;11.93;88.65
78490;DHT22;67776;52.012;4.736;2023-03-13T05:13:47;11.94;88.81
78490;DHT22;67776;52.012;4.736;2023-03-13T05:16:12;11.97;88.65
78490;DHT22;67776;52.012;4.736;2023-03-13T05:18:37;11.99;88.42
78490;DHT22;67776;52.012;4.736;2023-03-13T05:21:04;11.88;88.88
78490;DHT22;67776;52.012;4.736;2023-03-13T05:23:29;11.94;88.38
78490;DHT22;67776;52.012;4.736;2023-03-13T05:25:54;11.97;88.14
78490;DHT22;67776;52.012;4.736;2023-03-13T05:28:20;12.04;87.45
78490;DHT22;67776;52.012;4.736;2023-03-13T05:30:45;12.10;87.19
78490;DHT22;67776;52.012;4.736;2023-03-13T05:33:10;11.95;87.26
78490;DHT22;67776;52.012;4.736;2023-03-13T05:35:36;11.97;87.25
78490;DHT22;67776;52.012;4.736;2023-03-13T05:38:01;11.94;86.83
78490;DHT22;67776;52.012;4.736;2023-03-13T05:40:26;12.10;86.25
78490;DHT22;67776;52.012;4.736;2023-03-13T05:42:52;12.12;86.00
78490;DHT22;67776;52.012;4.736;2023-03-13T05:45:17;12.11;85.95
78490;DHT22;67776;52.012;4.736;2023-03-13T05:47:43;12.01;86.28
78490;DHT22;67776;52.012;4.736;2023-03-13T05:50:09;12.01;86.20
78490;DHT22;67776;52.012;4.736;2023-03-13T05:52:34;12.12;85.30
78490;DHT22;67776;52.012;4.736;2023-03-13T05:55:00;12.04;86.11
78490;DHT22;67776;52.012;4.736;2023-03-13T05:57:25;12.10;85.84
78490;DHT22;67776;52.012;4.736;2023-03-13T05:59:50;12.05;85.81
78490;DHT22;67776;52.012;4.736;2023-03-13T06:02:16;12.06;85.71
78490;DHT22;67776;52.012;4.736;2023-03-13T06:04:41;11.99;86.30
78490;DHT22;67776;52.012;4.736;2023-03-13T06:07:06;12.18;85.12
78490;DHT22;67776;52.012;4.736;2023-03-13T06:09:32;12.02;86.11
78490;DHT22;67776;52.012;4.736;2023-03-13T06:11:57;12.01;86.18
78490;DHT22;67776;52.012;4.736;2023-03-13T06:14:23;11.97;86.32
78490;DHT22;67776;52.012;4.736;2023-03-13T06:16:48;12.05;85.98
78490;DHT22;67776;52.012;4.736;2023-03-13T06:19:14;12.04;86.04
78490;DHT22;67776;52.012;4.736;2023-03-13T06:21:39;12.06;86.18
78490;DHT22;67776;52.012;4.736;2023-03-13T06:24:05;12.06;86.30
78490;DHT22;67776;52.012;4.736;2023-03-13T06:26:31;12.02;86.81
78490;DHT22;67776;52.012;4.736;2023-03-13T06:28:56;12.02;87.13
78490;DHT22;67776;52.012;4.736;2023-03-13T06:31:21;11.99;87.34
78490;DHT22;67776;52.012;4.736;2023-03-13T06:33:47;11.95;87.91
78490;DHT22;67776;52.012;4.736;2023-03-13T06:36:12;11.97;87.85
78490;DHT22;67776;52.012;4.736;2023-03-13T06:38:37;11.81;88.79
78490;DHT22;67776;52.012;4.736;2023-03-13T06:41:03;11.77;89.22
78490;DHT22;67776;52.012;4.736;2023-03-13T06:43:29;11.71;89.77
78490;DHT22;67776;52.012;4.736;2023-03-13T06:45:54;11.62;90.77
78490;DHT22;67776;52.012;4.736;2023-03-13T06:48:19;11.57;91.17
78490;DHT22;67776;52.012;4.736;2023-03-13T06:50:47;11.49;91.67
78490;DHT22;67776;52.012;4.736;2023-03-13T06:53:15;11.40;92.30
78490;DHT22;67776;52.012;4.736;2023-03-13T06:55:41;11.38;92.33
78490;DHT22;67776;52.012;4.736;2023-03-13T06:58:07;11.35;92.63
78490;DHT22;67776;52.012;4.736;2023-03-13T07:00:33;11.32;92.64
78490;DHT22;67776;52.012;4.736;2023-03-13T07:02:58;11.33;92.49
78490;DHT22;67776;52.012;4.736;2023-03-13T07:05:24;11.35;92.35
78490;DHT22;67776;52.012;4.736;2023-03-13T07:07:49;11.35;92.23
78490;DHT22;67776;52.012;4.736;2023-03-13T07:10:14;11.36;92.19
78490;DHT22;67776;52.012;4.736;2023-03-13T07:12:40;11.39;92.25
78490;DHT22;67776;52.012;4.736;2023-03-13T07:15:06;11.40;92.20
78490;DHT22;67776;52.012;4.736;2023-03-13T07:17:31;11.39;92.26
78490;DHT22;67776;52.012;4.736;2023-03-13T07:19:57;11.40;92.33
78490;DHT22;67776;52.012;4.736;2023-03-13T07:22:22;11.35;92.20
78490;DHT22;67776;52.012;4.736;2023-03-13T07:24:47;11.33;92.39
78490;DHT22;67776;52.012;4.736;2023-03-13T07:27:13;11.35;92.38
78490;DHT22;67776;52.012;4.736;2023-03-13T07:29:38;11.38;92.29
78490;DHT22;67776;52.012;4.736;2023-03-13T07:32:04;11.33;92.28
78490;DHT22;67776;52.012;4.736;2023-03-13T07:34:29;11.39;91.98
78490;DHT22;67776;52.012;4.736;2023-03-13T07:36:55;11.43;91.92
78490;DHT22;67776;52.012;4.736;2023-03-13T07:39:20;11.47;91.71
78490;DHT22;67776;52.012;4.736;2023-03-13T07:41:45;11.47;91.82
78490;DHT22;67776;52.012;4.736;2023-03-13T07:44:11;11.67;90.77
78490;DHT22;67776;52.012;4.736;2023-03-13T07:46:36;11.70;90.89
78490;DHT22;67776;52.012;4.736;2023-03-13T07:49:01;11.70;90.98
78490;DHT22;67776;52.012;4.736;2023-03-13T07:51:27;11.77;90.48
78490;DHT22;67776;52.012;4.736;2023-03-13T07:53:52;11.88;90.12
78490;DHT22;67776;52.012;4.736;2023-03-13T07:56:20;11.94;89.75
78490;DHT22;67776;52.012;4.736;2023-03-13T07:58:46;11.94;89.97
78490;DHT22;67776;52.012;4.736;2023-03-13T08:01:18;11.97;89.61
78490;DHT22;67776;52.012;4.736;2023-03-13T08:03:44;11.93;89.99
78490;DHT22;67776;52.012;4.736;2023-03-13T08:06:12;11.87;91.02
78490;DHT22;67776;52.012;4.736;2023-03-13T08:08:39;11.87;91.15
78490;DHT22;67776;52.012;4.736;2023-03-13T08:11:10;11.91;91.34
78490;DHT22;67776;52.012;4.736;2023-03-13T08:13:36;12.18;90.89
78490;DHT22;67776;52.012;4.736;2023-03-13T08:16:03;12.22;90.19
78490;DHT22;67776;52.012;4.736;2023-03-13T08:18:28;12.12;89.68
78490;DHT22;67776;52.012;4.736;2023-03-13T08:21:00;12.06;89.57
78490;DHT22;67776;52.012;4.736;2023-03-13T08:23:25;12.05;89.89
78490;DHT22;67776;52.012;4.736;2023-03-13T08:25:51;11.97;90.49
78490;DHT22;67776;52.012;4.736;2023-03-13T08:28:16;11.93;90.46
78490;DHT22;67776;52.012;4.736;2023-03-13T08:30:41;11.90;90.31
78490;DHT22;67776;52.012;4.736;2023-03-13T08:33:07;11.93;90.51
78490;DHT22;67776;52.012;4.736;2023-03-13T08:35:32;11.86;90.66
78490;DHT22;67776;52.012;4.736;2023-03-13T08:37:57;11.98;89.49
78490;DHT22;67776;52.012;4.736;2023-03-13T08:40:23;12.08;89.70
78490;DHT22;67776;52.012;4.736;2023-03-13T08:42:48;12.08;89.27
78490;DHT22;67776;52.012;4.736;2023-03-13T08:45:13;12.20;88.92
78490;DHT22;67776;52.012;4.736;2023-03-13T08:47:39;12.21;88.87
78490;DHT22;67776;52.012;4.736;2023-03-13T08:50:04;12.18;88.05
78490;DHT22;67776;52.012;4.736;2023-03-13T08:52:30;12.40;87.64
78490;DHT22;67776;52.012;4.736;2023-03-13T08:54:55;12.45;87.91
78490;DHT22;67776;52.012;4.736;2023-03-13T08:57:20;12.61;87.22
78490;DHT22;67776;52.012;4.736;2023-03-13T08:59:46;12.70;86.94
78490;DHT22;67776;52.012;4.736;2023-03-13T09:02:11;13.05;84.18
78490;DHT22;67776;52.012;4.736;2023-03-13T09:04:42;13.26;83.39
78490;DHT22;67776;52.012;4.736;2023-03-13T09:07:08;13.42;84.11
78490;DHT22;67776;52.012;4.736;2023-03-13T09:09:33;13.56;83.58
78490;DHT22;67776;52.012;4.736;2023-03-13T09:11:59;13.81;81.71
78490;DHT22;67776;52.012;4.736;2023-03-13T09:14:24;13.93;81.54
78490;DHT22;67776;52.012;4.736;2023-03-13T09:16:50;13.93;79.96
78490;DHT22;67776;52.012;4.736;2023-03-13T09:19:15;13.88;80.08
78490;DHT22;67776;52.012;4.736;2023-03-13T09:21:41;13.76;80.31
78490;DHT22;67776;52.012;4.736;2023-03-13T09:24:07;13.59;80.70
78490;DHT22;67776;52.012;4.736;2023-03-13T09:26:32;13.86;78.63
78490;DHT22;67776;52.012;4.736;2023-03-13T09:28:58;13.93;79.72
78490;DHT22;67776;52.012;4.736;2023-03-13T09:31:26;13.96;78.39
78490;DHT22;67776;52.012;4.736;2023-03-13T09:33:52;13.91;79.60
78490;DHT22;67776;52.012;4.736;2023-03-13T09:36:18;13.94;79.24
78490;DHT22;67776;52.012;4.736;2023-03-13T09:38:44;13.88;78.82
78490;DHT22;67776;52.012;4.736;2023-03-13T09:44:17;14.15;78.05
78490;DHT22;67776;52.012;4.736;2023-03-13T09:49:32;14.46;77.43
78490;DHT22;67776;52.012;4.736;2023-03-13T09:54:47;15.00;74.63
78490;DHT22;67776;52.012;4.736;2023-03-13T09:57:18;14.58;76.17
78490;DHT22;67776;52.012;4.736;2023-03-13T10:00:00;14.96;75.31
78490;DHT22;67776;52.012;4.736;2023-03-13T10:02:34;14.81;75.11
78490;DHT22;67776;52.012;4.736;2023-03-13T10:05:07;14.49;76.53
78490;DHT22;67776;52.012;4.736;2023-03-13T10:07:35;14.35;77.42
78490;DHT22;67776;52.012;4.736;2023-03-13T10:10:01;14.70;75.88
78490;DHT22;67776;52.012;4.736;2023-03-13T10:12:28;14.97;75.57
78490;DHT22;67776;52.012;4.736;2023-03-13T10:17:42;15.51;74.32
78490;DHT22;67776;52.012;4.736;2023-03-13T10:20:22;16.17;72.52
78490;DHT22;67776;52.012;4.736;2023-03-13T10:22:50;16.11;70.84
78490;DHT22;67776;52.012;4.736;2023-03-13T10:25:27;15.62;70.93
78490;DHT22;67776;52.012;4.736;2023-03-13T10:27:54;15.41;74.05
78490;DHT22;67776;52.012;4.736;2023-03-13T10:30:33;15.25;74.58
78490;DHT22;67776;52.012;4.736;2023-03-13T10:33:23;15.39;71.97
78490;DHT22;67776;52.012;4.736;2023-03-13T10:36:10;15.31;72.39
78490;DHT22;67776;52.012;4.736;2023-03-13T10:38:48;16.04;68.58
78490;DHT22;67776;52.012;4.736;2023-03-13T10:41:26;16.35;67.70
78490;DHT22;67776;52.012;4.736;2023-03-13T10:43:58;16.77;66.48
78490;DHT22;67776;52.012;4.736;2023-03-13T10:46:26;16.80;63.86
78490;DHT22;67776;52.012;4.736;2023-03-13T10:48:54;15.77;66.50
78490;DHT22;67776;52.012;4.736;2023-03-13T10:51:22;16.41;64.25
78490;DHT22;67776;52.012;4.736;2023-03-13T10:53:48;16.68;65.62
78490;DHT22;67776;52.012;4.736;2023-03-13T10:56:15;17.03;63.14
78490;DHT22;67776;52.012;4.736;2023-03-13T10:58:46;17.28;63.24
78490;DHT22;67776;52.012;4.736;2023-03-13T11:01:27;17.20;61.87
78490;DHT22;67776;52.012;4.736;2023-03-13T11:03:54;17.11;61.46
78490;DHT22;67776;52.012;4.736;2023-03-13T11:06:32;17.46;60.69
78490;DHT22;67776;52.012;4.736;2023-03-13T11:09:15;17.46;62.81
78490;DHT22;67776;52.012;4.736;2023-03-13T11:11:46;17.51;59.42
78490;DHT22;67776;52.012;4.736;2023-03-13T11:14:20;16.72;60.79
78490;DHT22;67776;52.012;4.736;2023-03-13T11:28:27;15.73;63.07
78490;DHT22;67776;52.012;4.736;2023-03-13T11:31:10;16.81;59.60
78490;DHT22;67776;52.012;4.736;2023-03-13T11:36:34;15.86;60.21
78490;DHT22;67776;52.012;4.736;2023-03-13T11:44:30;16.56;57.96
78490;DHT22;67776;52.012;4.736;2023-03-13T11:47:37;16.63;57.75
78490;DHT22;67776;52.012;4.736;2023-03-13T12:00:58;17.03;56.62
78490;DHT22;67776;52.012;4.736;2023-03-13T12:05:59;17.82;55.29
78490;DHT22;67776;52.012;4.736;2023-03-13T12:08:39;18.00;54.62
78490;DHT22;67776;52.012;4.736;2023-03-13T12:11:16;17.94;54.56
78490;DHT22;67776;52.012;4.736;2023-03-13T12:14:03;17.89;53.83
78490;DHT22;67776;52.012;4.736;2023-03-13T12:16:42;17.55;56.70
78490;DHT22;67776;52.012;4.736;2023-03-13T12:19:11;17.72;53.86
78490;DHT22;67776;52.012;4.736;2023-03-13T12:21:46;17.93;55.66
78490;DHT22;67776;52.012;4.736;2023-03-13T12:24:25;17.93;53.60
78490;DHT22;67776;52.012;4.736;2023-03-13T12:29:43;18.63;52.48
78490;DHT22;67776;52.012;4.736;2023-03-13T12:32:18;18.31;52.47
78490;DHT22;67776;52.012;4.736;2023-03-13T12:35:02;18.08;52.31
78490;DHT22;67776;52.012;4.736;2023-03-13T12:40:30;17.06;55.07
78490;DHT22;67776;52.012;4.736;2023-03-13T12:45:35;16.72;55.34
78490;DHT22;67776;52.012;4.736;2023-03-13T12:48:16;16.26;56.26
78490;DHT22;67776;52.012;4.736;2023-03-13T12:50:55;17.23;55.87
78490;DHT22;67776;52.012;4.736;2023-03-13T12:56:08;16.94;55.84
78490;DHT22;67776;52.012;4.736;2023-03-13T12:58:48;17.11;54.76
78490;DHT22;67776;52.012;4.736;2023-03-13T13:01:25;16.28;58.55
78490;DHT22;67776;52.012;4.736;2023-03-13T13:03:57;16.44;56.50
78490;DHT22;67776;52.012;4.736;2023-03-13T13:06:24;17.13;55.40
78490;DHT22;67776;52.012;4.736;2023-03-13T13:14:00;16.91;53.16
78490;DHT22;67776;52.012;4.736;2023-03-13T13:16:27;17.20;53.26
78490;DHT22;67776;52.012;4.736;2023-03-13T13:18:53;16.21;55.30
78490;DHT22;67776;52.012;4.736;2023-03-13T13:21:23;16.38;54.82
78490;DHT22;67776;52.012;4.736;2023-03-13T13:23:51;16.47;54.21
78490;DHT22;67776;52.012;4.736;2023-03-13T13:28:55;15.80;55.59
78490;DHT22;67776;52.012;4.736;2023-03-13T13:39:49;15.91;55.24
78490;DHT22;67776;52.012;4.736;2023-03-13T13:47:40;16.77;53.55
78490;DHT22;67776;52.012;4.736;2023-03-13T13:50:26;17.04;53.79
78490;DHT22;67776;52.012;4.736;2023-03-13T13:53:31;17.03;53.98
78490;DHT22;67776;52.012;4.736;2023-03-13T13:55:57;16.51;54.03
78490;DHT22;67776;52.012;4.736;2023-03-13T13:58:26;16.66;53.91
78490;DHT22;67776;52.012;4.736;2023-03-13T14:01:00;16.45;55.68
78490;DHT22;67776;52.012;4.736;2023-03-13T14:03:29;16.04;54.24
78490;DHT22;67776;52.012;4.736;2023-03-13T14:06:01;16.15;54.71
78490;DHT22;67776;52.012;4.736;2023-03-13T14:08:32;15.97;54.82
78490;DHT22;67776;52.012;4.736;2023-03-13T14:11:28;15.91;55.89
78490;DHT22;67776;52.012;4.736;2023-03-13T14:14:19;16.04;54.87
78490;DHT22;67776;52.012;4.736;2023-03-13T14:16:46;16.18;54.56
78490;DHT22;67776;52.012;4.736;2023-03-13T14:19:39;15.70;55.47
78490;DHT22;67776;52.012;4.736;2023-03-13T14:22:08;15.67;57.23
78490;DHT22;67776;52.012;4.736;2023-03-13T14:24:34;15.79;56.28
78490;DHT22;67776;52.012;4.736;2023-03-13T14:27:00;16.08;57.20
78490;DHT22;67776;52.012;4.736;2023-03-13T14:29:26;15.93;56.62
78490;DHT22;67776;52.012;4.736;2023-03-13T14:31:56;15.71;57.36
78490;DHT22;67776;52.012;4.736;2023-03-13T14:34:23;15.59;57.05
78490;DHT22;67776;52.012;4.736;2023-03-13T14:36:54;15.65;58.17
78490;DHT22;67776;52.012;4.736;2023-03-13T14:39:35;15.48;58.63
78490;DHT22;67776;52.012;4.736;2023-03-13T14:42:12;15.53;57.69
78490;DHT22;67776;52.012;4.736;2023-03-13T14:44:39;15.52;57.69
78490;DHT22;67776;52.012;4.736;2023-03-13T14:47:15;15.42;57.74
78490;DHT22;67776;52.012;4.736;2023-03-13T14:49:46;15.46;58.05
78490;DHT22;67776;52.012;4.736;2023-03-13T14:52:25;15.65;58.09
78490;DHT22;67776;52.012;4.736;2023-03-13T14:54:53;15.63;56.77
78490;DHT22;67776;52.012;4.736;2023-03-13T14:57:21;15.38;57.19
78490;DHT22;67776;52.012;4.736;2023-03-13T14:59:48;15.48;58.16
78490;DHT22;67776;52.012;4.736;2023-03-13T15:02:27;15.59;57.29
78490;DHT22;67776;52.012;4.736;2023-03-13T15:07:22;15.66;55.22
78490;DHT22;67776;52.012;4.736;2023-03-13T15:09:48;15.63;55.97
78490;DHT22;67776;52.012;4.736;2023-03-13T15:12:20;15.71;56.48
78490;DHT22;67776;52.012;4.736;2023-03-13T15:14:47;15.42;56.14
78490;DHT22;67776;52.012;4.736;2023-03-13T15:17:16;15.42;56.60
78490;DHT22;67776;52.012;4.736;2023-03-13T15:19:47;15.51;56.44
78490;DHT22;67776;52.012;4.736;2023-03-13T15:22:17;15.60;55.51
78490;DHT22;67776;52.012;4.736;2023-03-13T15:24:43;15.41;55.24
78490;DHT22;67776;52.012;4.736;2023-03-13T15:27:17;15.48;55.88
78490;DHT22;67776;52.012;4.736;2023-03-13T15:29:44;15.35;57.47
78490;DHT22;67776;52.012;4.736;2023-03-13T15:32:15;15.34;56.00
78490;DHT22;67776;52.012;4.736;2023-03-13T15:34:42;15.25;57.17
78490;DHT22;67776;52.012;4.736;2023-03-13T15:37:11;15.10;55.74
78490;DHT22;67776;52.012;4.736;2023-03-13T15:39:37;15.12;55.61
78490;DHT22;67776;52.012;4.736;2023-03-13T15:42:02;15.24;55.91
78490;DHT22;67776;52.012;4.736;2023-03-13T15:44:27;15.10;55.99
78490;DHT22;67776;52.012;4.736;2023-03-13T15:46:53;15.12;55.75
78490;DHT22;67776;52.012;4.736;2023-03-13T15:49:18;15.43;56.05
78490;DHT22;67776;52.012;4.736;2023-03-13T15:51:43;15.30;55.62
78490;DHT22;67776;52.012;4.736;2023-03-13T15:54:09;15.14;56.10
78490;DHT22;67776;52.012;4.736;2023-03-13T15:56:36;15.27;55.23
78490;DHT22;67776;52.012;4.736;2023-03-13T15:59:08;15.30;56.55
78490;DHT22;67776;52.012;4.736;2023-03-13T16:01:34;15.51;55.09
78490;DHT22;67776;52.012;4.736;2023-03-13T16:03:59;15.24;55.33
78490;DHT22;67776;52.012;4.736;2023-03-13T16:06:25;15.04;56.29
78490;DHT22;67776;52.012;4.736;2023-03-13T16:08:56;15.17;56.66
78490;DHT22;67776;52.012;4.736;2023-03-13T16:11:22;15.17;55.46
78490;DHT22;67776;52.012;4.736;2023-03-13T16:13:49;14.88;56.46
78490;DHT22;67776;52.012;4.736;2023-03-13T16:16:20;14.63;57.07
78490;DHT22;67776;52.012;4.736;2023-03-13T16:18:47;14.80;56.96
78490;DHT22;67776;52.012;4.736;2023-03-13T16:21:17;14.79;56.79
78490;DHT22;67776;52.012;4.736;2023-03-13T16:23:43;14.86;56.92
78490;DHT22;67776;52.012;4.736;2023-03-13T16:26:13;14.84;56.64
78490;DHT22;67776;52.012;4.736;2023-03-13T16:28:39;14.75;57.79
78490;DHT22;67776;52.012;4.736;2023-03-13T16:31:04;14.77;57.73
78490;DHT22;67776;52.012;4.736;2023-03-13T16:33:30;14.84;58.29
78490;DHT22;67776;52.012;4.736;2023-03-13T16:35:55;14.81;58.45
78490;DHT22;67776;52.012;4.736;2023-03-13T16:38:20;14.49;59.51
78490;DHT22;67776;52.012;4.736;2023-03-13T16:40:46;14.36;59.90
78490;DHT22;67776;52.012;4.736;2023-03-13T16:43:11;14.31;60.32
78490;DHT22;67776;52.012;4.736;2023-03-13T16:45:37;14.07;60.83
78490;DHT22;67776;52.012;4.736;2023-03-13T16:48:02;13.86;62.59
78490;DHT22;67776;52.012;4.736;2023-03-13T16:50:35;14.01;61.57
78490;DHT22;67776;52.012;4.736;2023-03-13T16:53:00;13.88;62.01
78490;DHT22;67776;52.012;4.736;2023-03-13T16:55:26;13.69;62.62
78490;DHT22;67776;52.012;4.736;2023-03-13T16:57:56;13.63;63.08
78490;DHT22;67776;52.012;4.736;2023-03-13T17:00:23;13.58;63.62
78490;DHT22;67776;52.012;4.736;2023-03-13T17:02:48;13.46;64.02
78490;DHT22;67776;52.012;4.736;2023-03-13T17:05:14;13.39;64.47